Time;durP1;ratioP1;P1;durP2;ratioP2;P2;SDS_P1;SDS_P2;PMS_P1;PMS_P2;Temp;Humidity;BMP_temperature;BMP_pressure;BME280_temperature;BME280_humidity;BME280_pressure;Samples;Min_cycle;Max_cycle;Signal;HPM_P1;HPM_P2
2023/05/01 00:03:36;;;;;;;4.35;1.23;;;;;;;15.20;48.94;100435.94;10345601;28;20109;-60
2023/05/01 00:08:38;;;;;;;2.60;0.90;;;;;;;15.06;49.36;100435.06;10312822;28;20136;-60
2023/05/01 00:13:40;;;;;;;2.08;1.10;;;;;;;14.98;49.42;100426.31;10334396;28;20046;-59
2023/05/01 00:18:41;;;;;;;4.10;1.30;;;;;;;14.92;49.57;100421.72;10316806;28;20141;-59
2023/05/01 00:23:42;;;;;;;2.38;0.90;;;;;;;14.80;49.92;100411.44;10326935;28;20046;-59
2023/05/01 00:28:44;;;;;;;1.63;0.88;;;;;;;14.75;50.06;100408.53;10327934;28;20050;-59
2023/05/01 00:33:45;;;;;;;4.00;0.90;;;;;;;14.65;50.12;100408.91;10327191;28;20042;-59
2023/05/01 00:38:47;;;;;;;3.22;1.52;;;;;;;14.48;50.52;100397.56;10330445;28;20073;-59
2023/05/01 00:43:48;;;;;;;4.75;2.05;;;;;;;14.39;50.99;100393.31;10319603;28;20074;-59
2023/05/01 00:48:51;;;;;;;4.35;1.42;;;;;;;14.31;51.24;100396.19;10318742;28;20050;-58
2023/05/01 00:53:52;;;;;;;2.13;0.80;;;;;;;14.33;51.14;100393.31;10323771;28;20074;-59
2023/05/01 00:58:55;;;;;;;3.95;1.58;;;;;;;14.27;51.46;100386.81;10325897;28;20138;-59
2023/05/01 01:03:56;;;;;;;2.05;1.35;;;;;;;14.24;51.29;100374.53;10319123;28;20509;-59
2023/05/01 01:09:27;;;;;;;4.50;2.47;;;;;;;14.23;51.72;100366.63;10324029;28;20153;-59
2023/05/01 01:14:55;;;;;;;2.33;1.17;;;;;;;14.29;51.69;100365.81;10319512;28;20053;-59
2023/05/01 01:20:22;;;;;;;2.17;1.33;;;;;;;14.23;51.79;100355.81;10309507;28;20679;-59
2023/05/01 01:25:40;;;;;;;2.78;1.00;;;;;;;14.20;52.07;100350.81;10335375;28;20042;-59
2023/05/01 01:30:50;;;;;;;2.05;1.25;;;;;;;14.13;52.26;100349.94;10333727;28;20086;-58
2023/05/01 01:36:06;;;;;;;1.85;1.40;;;;;;;14.08;52.46;100342.44;10326101;28;20065;-58
2023/05/01 01:41:32;;;;;;;3.42;2.05;;;;;;;13.96;52.79;100344.00;10320441;28;20413;-58
2023/05/01 01:46:38;;;;;;;4.65;1.40;;;;;;;13.83;52.76;100342.06;10330799;28;20104;-59
2023/05/01 01:51:40;;;;;;;3.72;1.75;;;;;;;13.78;53.12;100331.81;10322393;28;20050;-58
2023/05/01 01:56:44;;;;;;;3.13;1.75;;;;;;;13.60;53.17;100324.22;10330620;28;20054;-59
2023/05/01 02:01:48;;;;;;;3.92;2.13;;;;;;;13.57;53.27;100327.34;10332110;28;20976;-59
2023/05/01 02:06:50;;;;;;;3.63;2.42;;;;;;;13.54;53.70;100322.31;10329310;28;20043;-58
2023/05/01 02:11:56;;;;;;;3.15;2.03;;;;;;;13.48;53.46;100320.41;10327827;28;20053;-59
2023/05/01 02:16:58;;;;;;;3.70;2.03;;;;;;;13.43;53.73;100326.41;10326056;28;20077;-58
2023/05/01 02:22:01;;;;;;;3.67;2.35;;;;;;;13.35;54.33;100322.97;10333829;28;20141;-58
2023/05/01 02:27:08;;;;;;;4.60;3.40;;;;;;;13.28;54.50;100325.59;10324374;28;20046;-58
2023/05/01 02:32:09;;;;;;;4.67;3.03;;;;;;;13.17;54.34;100318.03;10332177;28;20046;-59
2023/05/01 02:37:11;;;;;;;5.88;3.30;;;;;;;13.08;54.74;100322.72;10328268;28;20124;-58
2023/05/01 02:42:15;;;;;;;6.35;3.22;;;;;;;13.01;55.34;100311.88;10326149;28;20059;-58
2023/05/01 02:47:20;;;;;;;6.50;3.22;;;;;;;12.89;55.48;100308.84;10320847;28;20066;-59
2023/05/01 02:52:22;;;;;;;3.97;2.90;;;;;;;12.83;55.77;100298.81;10333219;28;20121;-58
2023/05/01 02:57:24;;;;;;;4.70;3.53;;;;;;;12.82;55.46;100302.56;10332565;28;20045;-59
2023/05/01 03:02:25;;;;;;;5.05;3.70;;;;;;;12.84;55.63;100295.09;10330584;28;20107;-58
2023/05/01 03:07:33;;;;;;;3.78;3.05;;;;;;;12.82;55.91;100299.03;10320458;28;20093;-58
2023/05/01 03:12:35;;;;;;;11.18;4.28;;;;;;;12.83;55.89;100295.28;10325202;28;20042;-58
2023/05/01 03:17:36;;;;;;;3.63;3.05;;;;;;;12.84;56.23;100288.88;10330413;28;20129;-59
2023/05/01 03:22:38;;;;;;;4.63;3.20;;;;;;;12.79;56.25;100285.91;10333699;28;20057;-59
2023/05/01 03:27:40;;;;;;;4.60;3.08;;;;;;;12.74;56.42;100291.88;10330778;28;20497;-58
2023/05/01 03:32:41;;;;;;;6.78;3.33;;;;;;;12.82;56.47;100283.66;10328178;28;20085;-58
2023/05/01 03:37:43;;;;;;;5.13;2.83;;;;;;;12.85;56.14;100280.56;10332129;28;20050;-59
2023/05/01 03:42:44;;;;;;;6.28;3.13;;;;;;;12.90;56.53;100275.44;10327294;28;20705;-59
2023/05/01 03:47:46;;;;;;;3.95;3.03;;;;;;;12.86;56.64;100271.47;10328352;28;20591;-58
2023/05/01 03:52:47;;;;;;;4.65;3.05;;;;;;;12.86;57.04;100282.25;10329622;28;20129;-58
2023/05/01 03:57:48;;;;;;;4.70;3.78;;;;;;;12.90;57.05;100275.44;10323254;28;20050;-58
2023/05/01 04:02:50;;;;;;;4.22;2.85;;;;;;;12.93;56.60;100266.13;10334464;28;20048;-59
2023/05/01 04:07:51;;;;;;;6.28;3.60;;;;;;;12.81;56.92;100273.06;10327840;28;20496;-58
2023/05/01 04:12:53;;;;;;;6.38;3.72;;;;;;;12.73;57.20;100265.94;10327400;28;20066;-58
2023/05/01 04:17:55;;;;;;;5.90;3.90;;;;;;;12.69;57.22;100273.56;10326159;28;20448;-58
2023/05/01 04:22:57;;;;;;;4.75;2.95;;;;;;;12.64;56.92;100281.41;10326140;28;20061;-58
2023/05/01 04:27:58;;;;;;;5.45;2.85;;;;;;;12.67;57.22;100277.50;10331345;28;20042;-58
2023/05/01 04:33:00;;;;;;;5.82;2.80;;;;;;;12.64;56.86;100273.31;10326797;28;20081;-58
2023/05/01 04:38:02;;;;;;;5.13;3.65;;;;;;;12.55;57.59;100276.31;10321300;28;20046;-59
2023/05/01 04:43:03;;;;;;;7.13;3.00;;;;;;;12.39;57.48;100280.09;10325377;28;20070;-58
2023/05/01 04:48:05;;;;;;;5.95;3.33;;;;;;;12.34;57.48;100275.25;10321909;28;20078;-58
2023/05/01 04:53:07;;;;;;;4.72;3.42;;;;;;;12.34;57.45;100280.63;10326277;28;20049;-58
2023/05/01 04:58:08;;;;;;;5.03;2.55;;;;;;;12.32;57.38;100269.22;10332543;28;20034;-58
2023/05/01 05:03:10;;;;;;;5.68;3.33;;;;;;;12.28;57.94;100282.25;10323752;28;20046;-58
2023/05/01 05:08:11;;;;;;;9.00;2.80;;;;;;;12.40;57.73;100277.22;10326242;28;20054;-58
2023/05/01 05:13:13;;;;;;;5.00;2.65;;;;;;;12.43;57.59;100274.13;10324670;28;20120;-58
2023/05/01 05:18:14;;;;;;;4.55;3.03;;;;;;;12.48;57.30;100268.19;10323641;28;20075;-58
2023/05/01 05:23:15;;;;;;;5.78;3.10;;;;;;;12.59;57.39;100269.53;10336079;28;20046;-59
2023/05/01 05:28:17;;;;;;;8.35;2.50;;;;;;;12.59;57.50;100269.53;10324029;28;20062;-59
2023/05/01 05:33:18;;;;;;;6.85;2.65;;;;;;;12.69;56.85;100270.03;10330081;28;20081;-58
2023/05/01 05:38:20;;;;;;;3.58;2.33;;;;;;;12.78;56.86;100270.78;10331601;28;20705;-58
2023/05/01 05:43:22;;;;;;;4.75;2.85;;;;;;;12.90;56.63;100272.75;10326940;28;20046;-58
2023/05/01 05:48:26;;;;;;;4.78;2.10;;;;;;;12.93;56.73;100266.13;10307175;28;20496;-58
2023/05/01 05:53:28;;;;;;;4.90;2.10;;;;;;;12.88;57.37;100258.63;10319831;28;20085;-58
2023/05/01 05:58:29;;;;;;;4.70;1.83;;;;;;;13.02;57.11;100253.34;10319219;28;20160;-59
2023/05/01 06:03:31;;;;;;;3.92;2.42;;;;;;;13.25;56.80;100258.50;10328032;28;20124;-58
2023/05/01 06:08:35;;;;;;;4.32;1.92;;;;;;;13.42;56.87;100259.06;10323317;28;20050;-59
2023/05/01 06:13:36;;;;;;;3.35;1.63;;;;;;;13.70;56.30;100261.75;10330555;28;20042;-59
2023/05/01 06:18:38;;;;;;;6.50;2.47;;;;;;;13.96;55.91;100252.13;10326691;28;20092;-58
2023/05/01 06:23:39;;;;;;;4.28;2.08;;;;;;;14.20;55.66;100234.56;10322720;28;20196;-58
2023/05/01 06:28:40;;;;;;;6.18;1.98;;;;;;;14.43;54.99;100235.03;10325499;28;20050;-59
2023/05/01 06:33:42;;;;;;;4.13;1.92;;;;;;;14.68;54.01;100232.63;10318783;28;20117;-58
2023/05/01 06:38:47;;;;;;;4.82;1.95;;;;;;;15.01;53.41;100231.00;10319261;28;20054;-58
2023/05/01 06:43:48;;;;;;;6.10;2.58;;;;;;;15.15;52.91;100226.41;10315137;28;20521;-58
2023/05/01 06:48:50;;;;;;;3.60;1.73;;;;;;;15.34;52.36;100230.13;10325414;28;20078;-59
2023/05/01 06:53:51;;;;;;;6.25;2.83;;;;;;;15.38;51.98;100232.22;10332431;28;20050;-58
2023/05/01 06:58:53;;;;;;;4.45;2.00;;;;;;;15.59;51.24;100233.84;10319469;28;20133;-59
2023/05/01 07:03:54;;;;;;;4.85;1.95;;;;;;;15.79;50.60;100230.28;10333656;28;20069;-57
2023/05/01 07:08:55;;;;;;;3.28;2.03;;;;;;;15.83;50.69;100223.38;10328477;28;20482;-57
2023/05/01 07:13:57;;;;;;;5.55;1.95;;;;;;;15.95;50.15;100218.13;10329154;28;20077;-56
2023/05/01 07:18:58;;;;;;;3.28;1.98;;;;;;;15.96;50.49;100209.78;10322276;28;20038;-56
2023/05/01 07:23:59;;;;;;;4.20;2.20;;;;;;;16.11;50.17;100220.34;10296094;28;20572;-58
2023/05/01 07:29:01;;;;;;;3.53;2.28;;;;;;;16.36;49.71;100208.75;10321826;28;20046;-57
2023/05/01 07:34:03;;;;;;;5.82;2.42;;;;;;;16.57;49.03;100207.59;10331555;28;20050;-58
2023/05/01 07:39:05;;;;;;;7.00;2.50;;;;;;;16.85;48.68;100199.88;10323699;28;20105;-56
2023/05/01 07:44:07;;;;;;;5.72;2.47;;;;;;;17.18;48.03;100212.38;10327917;28;20046;-57
2023/05/01 07:49:08;;;;;;;4.00;2.30;;;;;;;17.42;47.49;100204.41;10326088;28;20046;-58
2023/05/01 07:54:09;;;;;;;3.80;2.22;;;;;;;17.67;46.40;100203.50;10313220;28;20497;-60
2023/05/01 07:59:11;;;;;;;2.92;1.77;;;;;;;17.84;45.88;100205.41;10319334;28;20077;-56
2023/05/01 08:04:13;;;;;;;6.40;2.65;;;;;;;18.10;45.33;100210.75;10323567;28;20049;-57
2023/05/01 08:09:15;;;;;;;6.68;2.55;;;;;;;18.26;44.65;100199.22;10332576;28;20228;-57
2023/05/01 08:14:17;;;;;;;4.82;2.90;;;;;;;18.40;43.50;100206.16;10326278;28;20485;-57
2023/05/01 08:19:18;;;;;;;3.83;2.17;;;;;;;18.22;43.18;100201.59;10320645;28;20050;-57
2023/05/01 08:24:20;;;;;;;4.38;2.50;;;;;;;18.34;43.04;100193.47;10317233;28;20065;-56
2023/05/01 08:29:21;;;;;;;5.80;2.83;;;;;;;18.65;42.41;100197.00;10320333;28;20539;-56
2023/05/01 08:34:23;;;;;;;8.27;3.63;;;;;;;18.84;41.71;100203.25;10323389;28;20053;-56
2023/05/01 08:39:24;;;;;;;4.45;2.50;;;;;;;18.91;41.60;100190.31;10305027;28;20058;-57
2023/05/01 08:44:27;;;;;;;3.97;2.47;;;;;;;18.99;41.40;100187.25;10319132;28;20092;-55
2023/05/01 08:49:32;;;;;;;3.90;2.13;;;;;;;19.05;41.14;100190.94;10332582;28;20108;-59
2023/05/01 08:54:35;;;;;;;6.50;2.80;;;;;;;19.33;41.00;100186.66;10336781;28;20505;-56
2023/05/01 08:59:38;;;;;;;9.43;2.95;;;;;;;19.31;40.27;100180.63;10325699;28;20449;-56
2023/05/01 09:04:40;;;;;;;6.57;3.33;;;;;;;19.22;40.37;100182.88;10320548;28;20066;-56
2023/05/01 09:09:42;;;;;;;4.03;2.50;;;;;;;19.36;40.33;100176.13;10328397;28;20058;-56
2023/05/01 09:14:44;;;;;;;5.22;2.67;;;;;;;19.71;39.83;100179.88;10319725;28;20498;-56
2023/05/01 09:19:46;;;;;;;5.07;2.20;;;;;;;19.83;39.47;100179.84;10324379;28;20420;-56
2023/05/01 09:24:48;;;;;;;2.75;2.20;;;;;;;19.90;39.61;100186.00;10327652;28;20046;-56
2023/05/01 09:29:49;;;;;;;5.95;3.08;;;;;;;20.15;39.31;100178.34;10313436;28;20073;-56
2023/05/01 09:34:51;;;;;;;7.20;4.65;;;;;;;20.12;38.61;100180.72;10332761;28;20092;-55
2023/05/01 09:40:07;;;;;;;5.60;2.90;;;;;;;20.11;38.46;100177.16;10335865;28;20077;-57
2023/05/01 09:45:13;;;;;;;4.17;2.87;;;;;;;20.15;38.65;100170.16;10330482;28;20468;-58
2023/05/01 09:50:32;;;;;;;4.93;2.65;;;;;;;20.20;38.32;100164.78;10327736;28;20095;-57
2023/05/01 09:55:33;;;;;;;7.25;3.00;;;;;;;20.12;38.72;100164.34;10332100;28;20050;-56
2023/05/01 10:00:47;;;;;;;8.80;3.20;;;;;;;19.95;38.94;100153.38;10323042;28;20077;-56
2023/05/01 10:05:48;;;;;;;4.60;3.63;;;;;;;19.88;38.93;100150.78;10329228;28;20062;-58
2023/05/01 10:11:03;;;;;;;4.72;3.50;;;;;;;19.71;39.03;100168.97;10330816;28;20091;-58
2023/05/01 10:16:07;;;;;;;5.22;2.83;;;;;;;19.60;39.25;100149.63;10314216;28;20074;-57
2023/05/01 10:21:09;;;;;;;6.78;2.78;;;;;;;19.48;39.32;100148.03;10320941;28;20128;-58
2023/05/01 10:26:12;;;;;;;4.45;2.65;;;;;;;19.85;39.45;100145.81;10330430;28;20200;-58
2023/05/01 10:31:15;;;;;;;4.68;3.20;;;;;;;20.24;39.41;100142.44;10331931;28;20493;-58
2023/05/01 10:36:22;;;;;;;6.70;2.72;;;;;;;20.62;38.59;100139.06;10324393;28;20042;-59
2023/05/01 10:41:57;;;;;;;3.40;2.22;;;;;;;20.51;38.76;100143.47;10323340;28;20604;-58
2023/05/01 10:46:58;;;;;;;4.68;2.80;;;;;;;20.61;38.67;100140.13;10328435;28;20072;-58
2023/05/01 10:52:02;;;;;;;4.95;3.30;;;;;;;20.89;38.38;100136.50;10331434;28;20089;-59
2023/05/01 10:57:05;;;;;;;7.15;3.00;;;;;;;21.30;37.91;100126.16;10327658;28;20168;-58
2023/05/01 11:02:20;;;;;;;4.90;2.38;;;;;;;21.78;36.96;100118.28;10317590;28;20494;-57
2023/05/01 11:07:22;;;;;;;5.18;2.70;;;;;;;22.19;36.65;100110.50;10323033;28;20118;-64
2023/05/01 11:12:50;;;;;;;2.65;2.15;;;;;;;22.83;35.25;100101.50;10344317;28;20070;-66
2023/05/01 11:17:52;;;;;;;4.25;1.73;;;;;;;24.10;33.25;100096.88;10368796;28;20055;-62
2023/05/01 11:22:55;;;;;;;5.90;2.03;;;;;;;25.36;31.24;100099.03;10381875;28;20046;-63
2023/05/01 11:27:59;;;;;;;3.33;1.92;;;;;;;26.46;29.47;100085.16;10365174;28;20034;-65
2023/05/01 11:33:01;;;;;;;8.48;2.63;;;;;;;27.61;27.91;100084.56;10367680;28;20041;-67
2023/05/01 11:38:02;;;;;;;3.15;1.50;;;;;;;28.82;26.86;100091.28;10345062;28;20031;-66
2023/05/01 11:43:05;;;;;;;14.48;3.83;;;;;;;29.87;25.66;100083.41;10912655;22;20053;-72
2023/05/01 11:48:15;;;;;;;15.05;2.67;;;;;;;30.32;24.77;100072.41;10428525;28;20064;-67
2023/05/01 11:53:17;;;;;;;6.28;2.42;;;;;;;30.97;24.25;100071.81;10428232;28;20115;-69
2023/05/01 11:58:30;;;;;;;7.93;1.70;;;;;;;31.62;23.45;100066.66;10428185;28;20042;-67
2023/05/01 12:03:41;;;;;;;3.38;1.83;;;;;;;31.34;22.98;100057.72;10422923;28;20037;-68
2023/05/01 12:08:46;;;;;;;5.35;1.77;;;;;;;31.05;23.18;100055.53;10432898;28;20071;-68
2023/05/01 12:13:49;;;;;;;3.30;1.20;;;;;;;30.21;23.45;100066.22;10431215;28;20052;-69
2023/05/01 12:18:51;;;;;;;3.38;1.60;;;;;;;30.01;23.31;100071.13;10429290;28;20047;-68
2023/05/01 12:23:58;;;;;;;3.85;1.50;;;;;;;29.70;23.49;100070.16;10460958;28;20060;-66
2023/05/01 12:29:05;;;;;;;1.45;1.15;;;;;;;29.37;23.00;100062.84;10407402;28;20056;-68
2023/05/01 12:34:07;;;;;;;3.72;1.95;;;;;;;29.17;23.11;100066.03;10382383;28;20168;-67
2023/05/01 12:39:13;;;;;;;5.13;1.70;;;;;;;28.94;23.21;100060.34;10395673;28;20042;-66
2023/05/01 12:44:18;;;;;;;2.88;2.00;;;;;;;29.17;23.36;100058.53;10391943;28;20063;-66
2023/05/01 12:49:21;;;;;;;4.90;2.23;;;;;;;29.31;23.67;100058.53;10406000;28;20041;-68
2023/05/01 12:54:42;;;;;;;3.63;1.30;;;;;;;29.03;23.33;100052.97;10394196;28;20045;-66
2023/05/01 12:59:45;;;;;;;2.83;1.23;;;;;;;28.57;24.07;100050.25;10394324;28;20050;-66
2023/05/01 13:04:48;;;;;;;2.75;1.00;;;;;;;28.57;23.81;100056.59;10380444;28;20377;-67
2023/05/01 13:09:57;;;;;;;2.15;0.95;;;;;;;28.29;23.61;100056.47;10373040;28;20149;-69
2023/05/01 13:15:00;;;;;;;2.05;1.50;;;;;;;27.84;23.84;100050.53;10380300;28;20037;-67
2023/05/01 13:20:03;;;;;;;1.73;1.10;;;;;;;27.33;24.49;100048.47;10383061;28;20161;-69
2023/05/01 13:25:16;;;;;;;3.47;1.63;;;;;;;26.58;25.24;100049.81;10380412;28;20072;-71
2023/05/01 13:30:20;;;;;;;4.35;1.05;;;;;;;26.63;25.27;100033.22;10386991;28;20530;-66
2023/05/01 13:35:23;;;;;;;3.40;1.52;;;;;;;26.33;25.25;100037.06;10380124;28;20137;-67
2023/05/01 13:40:26;;;;;;;2.53;1.20;;;;;;;25.97;26.09;100031.84;10377457;28;20084;-66
2023/05/01 13:45:27;;;;;;;2.00;1.20;;;;;;;25.46;26.65;100035.69;10377676;28;20104;-70
2023/05/01 13:50:29;;;;;;;1.75;1.08;;;;;;;25.00;27.01;100037.75;10379600;28;20095;-69
2023/05/01 13:55:31;;;;;;;3.72;1.30;;;;;;;24.66;27.27;100038.38;10381662;28;20053;-70
2023/05/01 14:00:33;;;;;;;3.20;1.30;;;;;;;24.35;27.77;100041.16;10385078;28;20049;-71
2023/05/01 14:05:35;;;;;;;2.13;1.08;;;;;;;23.91;27.84;100044.41;10379126;28;20500;-71
2023/05/01 14:10:37;;;;;;;4.35;1.35;;;;;;;23.63;28.09;100043.75;10385372;28;20127;-72
2023/05/01 14:15:42;;;;;;;1.38;0.88;;;;;;;23.38;28.79;100039.03;10389804;28;20058;-71
2023/05/01 14:20:46;;;;;;;4.40;1.63;;;;;;;23.14;29.78;100036.75;10366151;28;20066;-70
2023/05/01 14:25:48;;;;;;;5.28;1.73;;;;;;;23.17;30.00;100030.72;10378575;28;20053;-71
2023/05/01 14:30:50;;;;;;;3.33;1.15;;;;;;;23.27;29.91;100031.84;10386168;28;20041;-71
2023/05/01 14:35:52;;;;;;;2.80;1.60;;;;;;;23.50;30.07;100012.19;10366087;28;20044;-71
2023/05/01 14:40:54;;;;;;;3.47;1.27;;;;;;;23.61;30.29;100017.69;10370729;28;20167;-70
2023/05/01 14:45:55;;;;;;;2.63;1.67;;;;;;;23.60;30.42;100018.78;10374440;28;20092;-70
2023/05/01 14:50:58;;;;;;;2.65;1.50;;;;;;;23.60;30.32;100021.50;10386404;28;20045;-70
2023/05/01 14:55:59;;;;;;;1.88;1.20;;;;;;;23.43;29.82;100022.56;10389371;28;20038;-70
2023/05/01 15:01:01;;;;;;;3.67;1.27;;;;;;;23.33;29.71;100028.03;10395035;28;20556;-71
2023/05/01 15:06:03;;;;;;;2.15;1.50;;;;;;;23.25;30.09;100026.63;10375033;28;20046;-72
2023/05/01 15:11:04;;;;;;;3.50;1.77;;;;;;;23.29;30.08;100030.47;10393535;28;20144;-71
2023/05/01 15:16:07;;;;;;;3.95;1.20;;;;;;;23.16;30.17;100026.34;10366717;28;20092;-71
2023/05/01 15:21:08;;;;;;;2.17;1.67;;;;;;;23.09;30.55;100019.44;10380323;28;20448;-70
2023/05/01 15:26:10;;;;;;;2.42;1.30;;;;;;;23.20;30.54;100020.28;10383366;28;20104;-68
2023/05/01 15:31:11;;;;;;;1.75;1.05;;;;;;;23.42;29.90;100017.34;10382353;28;20076;-70
2023/05/01 15:36:13;;;;;;;2.88;1.35;;;;;;;23.52;29.63;100020.16;10396476;28;20102;-70
2023/05/01 15:41:14;;;;;;;2.53;1.45;;;;;;;23.60;29.77;100019.63;10378687;28;20492;-69
2023/05/01 15:46:21;;;;;;;3.30;1.40;;;;;;;23.51;29.44;100022.03;10387314;28;20081;-70
2023/05/01 15:51:24;;;;;;;2.05;1.30;;;;;;;23.58;29.09;100019.06;10394320;28;20041;-70
2023/05/01 15:56:26;;;;;;;4.68;1.60;;;;;;;23.88;29.24;100023.00;10394350;28;20045;-70
2023/05/01 16:01:31;;;;;;;3.15;1.27;;;;;;;24.63;29.05;100012.28;10389204;28;20054;-69
2023/05/01 16:06:33;;;;;;;1.65;0.93;;;;;;;25.12;28.21;100014.34;10388663;28;20107;-70
2023/05/01 16:11:35;;;;;;;2.13;1.13;;;;;;;25.25;28.06;100012.13;10385264;28;20072;-67
2023/05/01 16:16:40;;;;;;;3.47;1.38;;;;;;;25.43;27.84;100016.16;10375418;28;20508;-68
2023/05/01 16:21:41;;;;;;;1.88;1.23;;;;;;;25.21;28.52;100027.50;10380599;28;20069;-67
2023/05/01 16:26:43;;;;;;;2.17;1.10;;;;;;;24.85;28.60;100017.44;10383756;28;20081;-67
2023/05/01 16:31:46;;;;;;;1.67;1.45;;;;;;;24.58;28.66;100019.72;10375538;28;20041;-68
2023/05/01 16:36:47;;;;;;;3.03;1.48;;;;;;;24.53;29.05;100021.38;10385091;28;20344;-68
2023/05/01 16:41:50;;;;;;;1.95;1.42;;;;;;;24.51;29.07;100031.00;10375786;28;20054;-67
2023/05/01 16:46:59;;;;;;;2.03;1.45;;;;;;;24.49;28.80;100030.44;10384426;28;20056;-70
2023/05/01 16:52:01;;;;;;;2.92;1.25;;;;;;;23.87;29.51;100037.81;10363329;28;20049;-67
2023/05/01 16:57:04;;;;;;;2.65;1.20;;;;;;;23.95;29.88;100040.84;10366367;28;20907;-68
2023/05/01 17:02:06;;;;;;;1.65;1.23;;;;;;;23.82;29.66;100041.38;10374333;28;20052;-67
2023/05/01 17:07:08;;;;;;;1.63;1.30;;;;;;;23.44;29.92;100042.59;10367392;28;20056;-67
2023/05/01 17:12:09;;;;;;;5.30;2.60;;;;;;;23.14;30.58;100041.38;10368131;28;20049;-65
2023/05/01 17:17:11;;;;;;;2.72;1.42;;;;;;;23.10;30.28;100041.09;10361434;28;20118;-65
2023/05/01 17:22:13;;;;;;;3.97;2.10;;;;;;;23.08;30.59;100050.69;10374293;28;20053;-65
2023/05/01 17:27:15;;;;;;;3.92;2.13;;;;;;;22.76;30.83;100057.88;10377409;28;20116;-65
2023/05/01 17:32:16;;;;;;;3.03;1.90;;;;;;;;;;10378235;28;20651;-66
2023/05/01 17:37:38;;;;;;;2.58;1.65;;;;;;;22.32;31.54;100066.31;10366044;28;20049;-66
2023/05/01 17:42:40;;;;;;;3.70;2.10;;;;;;;22.13;31.64;100062.28;10372288;28;20115;-68
2023/05/01 17:47:43;;;;;;;3.90;1.70;;;;;;;21.94;31.95;100065.38;10379535;28;20045;-68
2023/05/01 17:52:45;;;;;;;2.60;1.80;;;;;;;21.75;32.39;100061.34;10382749;28;20143;-67
2023/05/01 17:57:46;;;;;;;2.35;2.00;;;;;;;21.56;32.69;100077.28;10382257;28;20119;-67
2023/05/01 18:02:48;;;;;;;4.68;1.80;;;;;;;21.54;33.20;100074.81;10379511;28;20140;-67
2023/05/01 18:07:49;;;;;;;3.22;2.67;;;;;;;21.41;32.92;100080.63;10375166;28;20042;-66
2023/05/01 18:12:51;;;;;;;6.45;3.47;;;;;;;21.13;33.73;100089.81;10392755;28;20054;-67
2023/05/01 18:17:52;;;;;;;2.92;1.98;;;;;;;20.96;33.75;100085.22;10393555;28;20123;-67
2023/05/01 18:22:54;;;;;;;2.67;1.70;;;;;;;20.80;34.40;100089.63;10380702;28;20088;-67
2023/05/01 18:27:56;;;;;;;2.13;1.52;;;;;;;20.67;35.15;100089.16;10373796;28;20451;-67
2023/05/01 18:32:57;;;;;;;3.92;2.03;;;;;;;20.54;35.22;100090.28;10390085;28;20045;-67
2023/05/01 18:37:59;;;;;;;4.78;3.80;;;;;;;20.44;35.82;100090.09;10362349;28;20058;-68
2023/05/01 18:43:00;;;;;;;3.45;2.20;;;;;;;20.28;36.04;100102.66;10388947;28;20045;-67
2023/05/01 18:48:03;;;;;;;6.85;2.53;;;;;;;20.07;36.90;100106.94;10362776;28;20077;-68
2023/05/01 18:53:05;;;;;;;3.13;1.70;;;;;;;19.96;37.68;100114.09;10394091;28;20382;-68
2023/05/01 18:58:06;;;;;;;3.67;2.08;;;;;;;19.86;38.41;100131.09;10368087;28;20100;-65
2023/05/01 19:03:08;;;;;;;5.63;1.73;;;;;;;19.71;38.80;100139.81;10390837;28;20038;-65
2023/05/01 19:08:09;;;;;;;3.58;2.08;;;;;;;19.59;39.34;100149.91;10392024;28;20072;-67
2023/05/01 19:13:11;;;;;;;2.50;1.40;;;;;;;19.35;39.83;100160.00;10357091;28;20060;-65
2023/05/01 19:18:14;;;;;;;2.10;1.15;;;;;;;19.17;39.99;100167.25;10378874;28;20041;-67
2023/05/01 19:23:16;;;;;;;2.85;0.93;;;;;;;19.05;40.25;100179.22;10392337;28;20052;-66
2023/05/01 19:28:18;;;;;;;5.28;1.13;;;;;;;18.80;41.03;100180.25;10367462;28;20065;-63
2023/05/01 19:33:19;;;;;;;2.33;0.80;;;;;;;18.71;40.97;100195.25;10378947;28;20133;-67
2023/05/01 19:38:21;;;;;;;1.73;0.70;;;;;;;18.57;41.35;100195.44;10353684;28;20034;-65
2023/05/01 19:43:22;;;;;;;2.50;1.50;;;;;;;18.48;41.57;100207.72;10360506;28;20050;-63
2023/05/01 19:48:24;;;;;;;1.45;1.02;;;;;;;18.33;42.05;100210.88;10376304;28;20053;-64
2023/05/01 19:53:27;;;;;;;0.98;0.68;;;;;;;18.35;42.43;100219.63;10368823;28;20527;-64
2023/05/01 19:58:28;;;;;;;1.70;1.00;;;;;;;18.23;42.93;100230.47;10373896;28;20491;-63
2023/05/01 20:03:30;;;;;;;1.88;1.02;;;;;;;18.11;43.68;100226.88;10372748;28;20041;-65
2023/05/01 20:08:32;;;;;;;1.17;0.90;;;;;;;18.04;43.93;100235.09;10381418;28;20136;-66
2023/05/01 20:13:35;;;;;;;1.50;0.90;;;;;;;17.99;43.99;100237.69;10375961;28;20124;-65
2023/05/01 20:18:37;;;;;;;1.60;0.90;;;;;;;18.09;43.73;100244.44;10363246;28;20177;-64
2023/05/01 20:23:39;;;;;;;1.42;0.90;;;;;;;18.02;43.73;100255.44;10368259;28;20099;-65
2023/05/01 20:28:40;;;;;;;2.75;1.30;;;;;;;17.93;44.07;100254.91;10379769;28;20064;-64
2023/05/01 20:33:42;;;;;;;2.55;0.75;;;;;;;17.68;44.96;100263.09;10378698;28;20053;-65
2023/05/01 20:38:45;;;;;;;2.22;0.90;;;;;;;17.57;45.30;100264.66;10356104;28;20057;-65
2023/05/01 20:43:46;;;;;;;1.13;0.98;;;;;;;17.66;45.13;100267.94;10364913;28;20392;-62
2023/05/01 20:48:48;;;;;;;1.00;0.90;;;;;;;17.58;45.45;100271.75;10357599;28;20066;-62
2023/05/01 20:53:50;;;;;;;2.08;0.80;;;;;;;17.61;45.37;100268.59;10353647;28;20057;-62
2023/05/01 20:58:51;;;;;;;4.07;0.90;;;;;;;17.64;45.22;100275.47;10358665;28;20041;-63
2023/05/01 21:03:54;;;;;;;2.35;0.90;;;;;;;17.55;45.45;100272.19;10358141;28;20052;-63
2023/05/01 21:08:59;;;;;;;2.35;0.80;;;;;;;17.62;45.17;100270.25;10350496;28;20401;-63
2023/05/01 21:14:01;;;;;;;2.00;0.80;;;;;;;17.57;45.42;100277.41;10354168;28;20062;-63
2023/05/01 21:19:02;;;;;;;1.02;0.85;;;;;;;17.51;45.31;100276.41;10388305;28;20069;-62
2023/05/01 21:24:06;;;;;;;4.88;0.90;;;;;;;17.58;45.19;100285.34;10385016;28;20552;-63
2023/05/01 21:29:08;;;;;;;3.53;1.15;;;;;;;17.54;45.33;100281.41;10379550;28;20069;-62
2023/05/01 21:34:10;;;;;;;1.55;0.80;;;;;;;17.48;45.43;100282.31;10392428;28;20048;-63
2023/05/01 21:39:11;;;;;;;1.52;0.90;;;;;;;17.42;45.33;100288.66;10388708;28;20742;-63
2023/05/01 21:44:13;;;;;;;1.90;0.90;;;;;;;17.43;45.59;100290.28;10389806;28;20041;-64
2023/05/01 21:49:17;;;;;;;3.92;1.00;;;;;;;17.54;45.25;100292.28;10387946;28;20065;-64
2023/05/01 21:54:18;;;;;;;2.45;1.55;;;;;;;17.43;45.38;100301.16;10373936;28;20572;-63
2023/05/01 21:59:22;;;;;;;3.83;1.50;;;;;;;17.41;45.62;100304.09;10387431;28;20044;-63
2023/05/01 22:04:23;;;;;;;1.70;0.90;;;;;;;17.35;45.61;100302.28;10390103;28;20060;-63
2023/05/01 22:09:24;;;;;;;1.73;0.85;;;;;;;17.37;45.42;100304.78;10373900;28;20128;-63
2023/05/01 22:14:26;;;;;;;2.40;0.73;;;;;;;17.37;45.39;100315.66;10387932;28;20076;-63
2023/05/01 22:19:46;;;;;;;4.00;0.90;;;;;;;17.38;45.42;100317.31;10388968;28;20038;-63
2023/05/01 22:24:48;;;;;;;1.42;0.70;;;;;;;17.36;45.29;100314.81;10373588;28;20046;-62
2023/05/01 22:29:49;;;;;;;0.95;0.88;;;;;;;17.38;45.39;100323.59;10376874;28;20045;-62
2023/05/01 22:34:50;;;;;;;3.40;1.02;;;;;;;17.36;45.65;100320.25;10385270;28;20061;-64
2023/05/01 22:39:52;;;;;;;3.72;1.08;;;;;;;17.39;45.58;100329.84;10373998;28;20951;-60
2023/05/01 22:44:54;;;;;;;1.10;0.93;;;;;;;17.36;45.60;100341.16;10384010;28;20049;-64
2023/05/01 22:49:55;;;;;;;1.38;1.08;;;;;;;17.25;46.15;100343.53;10388496;28;20095;-63
2023/05/01 22:54:57;;;;;;;1.42;0.90;;;;;;;17.37;45.97;100345.53;10388057;28;20408;-61
2023/05/01 22:59:58;;;;;;;2.50;1.20;;;;;;;17.28;46.09;100352.28;10382808;28;20049;-62
2023/05/01 23:05:00;;;;;;;3.03;1.00;;;;;;;17.14;46.33;100354.25;10386145;28;20085;-62
2023/05/01 23:10:02;;;;;;;2.22;1.88;;;;;;;17.00;47.21;100354.38;10385131;28;20066;-63
2023/05/01 23:15:07;;;;;;;6.43;2.60;;;;;;;17.04;47.24;100365.59;10387383;28;20073;-63